createdAt,value
2018-03-06T00:00:54.104Z,99.90
2018-03-06T00:03:23.221Z,99.90
2018-03-06T00:05:51.574Z,99.90
2018-03-06T00:08:19.943Z,99.90
2018-03-06T00:10:48.377Z,99.90
2018-03-06T00:13:16.719Z,99.90
2018-03-06T00:15:45.819Z,99.90
2018-03-06T00:18:14.214Z,99.90
2018-03-06T00:20:42.606Z,99.90
2018-03-06T00:23:10.965Z,99.90
2018-03-06T00:25:39.310Z,99.90
2018-03-06T00:28:08.071Z,99.90
2018-03-06T00:30:36.417Z,99.90
2018-03-06T00:33:04.792Z,99.90
2018-03-06T00:35:33.897Z,99.90
2018-03-06T00:38:02.241Z,99.90
2018-03-06T00:40:30.594Z,99.90
2018-03-06T00:42:58.954Z,99.90
2018-03-06T00:45:27.641Z,99.90
2018-03-06T00:47:56.005Z,99.90
2018-03-06T00:50:24.412Z,99.90
2018-03-06T00:52:52.807Z,99.90
2018-03-06T00:55:22.263Z,99.90
2018-03-06T00:57:50.623Z,99.90
2018-03-06T01:00:19.805Z,99.90
2018-03-06T01:02:49.265Z,99.90
2018-03-06T01:05:17.611Z,99.90
2018-03-06T01:07:46.014Z,99.90
2018-03-06T01:10:14.367Z,99.90
2018-03-06T01:12:42.719Z,99.90
2018-03-06T01:15:11.351Z,99.90
2018-03-06T01:17:39.721Z,99.90
2018-03-06T01:20:08.078Z,99.90
2018-03-06T01:22:37.195Z,99.90
2018-03-06T01:25:05.599Z,99.90
2018-03-06T01:27:33.953Z,99.90
2018-03-06T01:30:02.352Z,99.90
2018-03-06T01:32:30.733Z,99.90
2018-03-06T01:34:59.087Z,99.90
2018-03-06T01:37:27.502Z,99.90
2018-03-06T01:39:55.854Z,99.90
2018-03-06T01:42:24.201Z,99.90
2018-03-06T01:44:53.336Z,99.90
2018-03-06T01:47:21.684Z,99.90
2018-03-06T01:49:50.787Z,99.90
2018-03-06T01:52:19.914Z,99.90
2018-03-06T01:54:48.284Z,99.90
2018-03-06T01:57:16.632Z,99.90
2018-03-06T01:59:45.761Z,99.90
2018-03-06T02:02:14.154Z,99.90
2018-03-06T02:04:42.498Z,99.90
2018-03-06T02:07:11.621Z,99.90
2018-03-06T02:09:39.972Z,99.90
2018-03-06T02:12:09.422Z,99.90
2018-03-06T02:14:37.786Z,99.90
2018-03-06T02:17:06.121Z,99.90
2018-03-06T02:19:34.546Z,99.90
2018-03-06T02:22:02.910Z,99.90
2018-03-06T02:24:31.251Z,99.90
2018-03-06T02:26:59.605Z,99.90
2018-03-06T02:29:28.080Z,99.90
2018-03-06T02:31:56.439Z,99.90
2018-03-06T02:34:24.834Z,99.90
2018-03-06T02:36:53.179Z,99.90
2018-03-06T02:39:21.533Z,99.90
2018-03-06T02:41:49.875Z,99.90
2018-03-06T02:44:18.245Z,99.90
2018-03-06T02:46:46.593Z,99.90
2018-03-06T02:49:14.959Z,99.90
2018-03-06T02:51:44.453Z,99.90
2018-03-06T02:54:12.807Z,99.90
2018-03-06T02:56:41.153Z,99.90
2018-03-06T02:59:09.509Z,99.90
2018-03-06T03:01:37.859Z,99.90
2018-03-06T03:04:06.212Z,99.90
2018-03-06T03:06:34.564Z,99.90
2018-03-06T03:09:02.949Z,99.90
2018-03-06T03:11:31.327Z,99.90
2018-03-06T03:13:59.825Z,99.90
2018-03-06T03:16:28.178Z,99.90
2018-03-06T03:18:56.530Z,99.90
2018-03-06T03:21:25.649Z,99.90
2018-03-06T03:23:54.041Z,99.90
2018-03-06T03:26:22.387Z,99.90
2018-03-06T03:28:51.495Z,99.90
2018-03-06T03:31:20.618Z,99.90
2018-03-06T03:33:48.996Z,99.90
2018-03-06T03:36:17.846Z,99.90
2018-03-06T03:38:46.996Z,99.90
2018-03-06T03:41:15.363Z,99.90
2018-03-06T03:43:43.736Z,99.90
2018-03-06T03:46:12.092Z,99.90
2018-03-06T03:48:41.211Z,99.90
2018-03-06T03:51:09.552Z,99.90
2018-03-06T03:53:38.669Z,99.90
2018-03-06T03:56:07.002Z,99.90
2018-03-06T03:58:35.360Z,99.90
2018-03-06T04:01:03.698Z,99.90
2018-03-06T04:03:32.816Z,99.90
2018-03-06T04:06:01.188Z,99.90
2018-03-06T04:08:29.638Z,99.90
2018-03-06T04:10:58.782Z,99.90
2018-03-06T04:13:27.193Z,99.90
2018-03-06T04:15:55.595Z,99.90
2018-03-06T04:18:24.739Z,99.90
2018-03-06T04:20:53.135Z,99.90
2018-03-06T04:23:21.480Z,99.90
2018-03-06T04:25:49.861Z,99.90
2018-03-06T04:28:18.215Z,99.90
2018-03-06T04:30:46.590Z,99.90
2018-03-06T04:33:14.939Z,99.90
2018-03-06T04:35:43.298Z,99.90
2018-03-06T04:38:11.656Z,99.90
2018-03-06T04:40:40.004Z,99.90
2018-03-06T04:43:09.141Z,99.90
2018-03-06T04:45:37.512Z,99.90
2018-03-06T04:48:05.880Z,99.90
2018-03-06T04:50:35.081Z,99.90
2018-03-06T04:53:04.251Z,99.90
2018-03-06T04:55:32.620Z,99.90
2018-03-06T04:58:00.974Z,99.90
2018-03-06T05:00:29.337Z,99.90
2018-03-06T05:02:57.684Z,99.90
2018-03-06T05:05:26.821Z,99.90
2018-03-06T05:07:55.174Z,99.90
2018-03-06T05:10:23.526Z,99.90
2018-03-06T05:12:52.656Z,99.90
2018-03-06T05:15:21.352Z,99.90
2018-03-06T05:17:49.702Z,99.90
2018-03-06T05:20:18.838Z,99.90
2018-03-06T05:22:47.203Z,99.90
2018-03-06T05:25:15.653Z,99.90
2018-03-06T05:27:44.801Z,99.90
2018-03-06T05:30:13.154Z,99.90
2018-03-06T05:32:41.522Z,99.90
2018-03-06T05:35:09.889Z,99.90
2018-03-06T05:37:39.016Z,99.90
2018-03-06T05:40:07.441Z,99.90
2018-03-06T05:42:35.836Z,99.90
2018-03-06T05:45:04.211Z,99.90
2018-03-06T05:47:32.648Z,99.90
2018-03-06T05:50:01.021Z,99.90
2018-03-06T05:52:29.395Z,99.90
2018-03-06T05:54:57.847Z,99.90
2018-03-06T05:57:27.004Z,99.90
2018-03-06T05:59:55.477Z,99.90
2018-03-06T06:02:23.828Z,99.90
2018-03-06T06:04:52.268Z,99.90
2018-03-06T06:07:20.651Z,99.90
2018-03-06T06:09:49.788Z,99.90
2018-03-06T06:12:18.259Z,99.90
2018-03-06T06:14:47.198Z,99.90
2018-03-06T06:17:15.561Z,99.90
2018-03-06T06:19:43.915Z,99.90
2018-03-06T06:22:12.302Z,99.90
2018-03-06T06:24:40.852Z,99.90
2018-03-06T06:27:09.981Z,99.90
2018-03-06T06:29:38.380Z,99.90
2018-03-06T06:32:06.791Z,99.90
2018-03-06T06:34:35.393Z,99.90
2018-03-06T06:37:04.512Z,99.90
2018-03-06T06:39:32.882Z,99.90
2018-03-06T06:42:01.307Z,99.90
2018-03-06T06:44:29.674Z,99.90
2018-03-06T06:46:58.020Z,99.90
2018-03-06T06:49:26.517Z,99.90
2018-03-06T06:51:54.927Z,99.90
2018-03-06T06:54:23.282Z,99.90
2018-03-06T06:56:51.646Z,99.90
2018-03-06T06:59:20.033Z,99.90
2018-03-06T07:01:48.391Z,99.90
2018-03-06T07:04:16.826Z,99.90
2018-03-06T07:06:45.214Z,99.90
2018-03-06T07:09:13.575Z,99.90
2018-03-06T07:11:41.972Z,99.90
2018-03-06T07:14:10.342Z,99.90
2018-03-06T07:16:38.737Z,99.90
2018-03-06T07:19:07.100Z,99.90
2018-03-06T07:21:35.457Z,99.90
2018-03-06T07:24:04.562Z,99.90
2018-03-06T07:26:32.933Z,99.90
2018-03-06T07:29:01.323Z,99.90
2018-03-06T07:31:29.738Z,99.90
2018-03-06T07:33:58.129Z,99.90
2018-03-06T07:36:26.478Z,99.90
2018-03-06T07:38:54.851Z,99.90
2018-03-06T07:41:23.215Z,99.90
2018-03-06T07:43:51.588Z,99.90
2018-03-06T07:46:19.994Z,99.90
2018-03-06T07:48:48.361Z,99.90
2018-03-06T07:51:16.946Z,99.90
2018-03-06T07:53:45.299Z,99.90
2018-03-06T07:56:13.705Z,99.90
2018-03-06T07:58:42.069Z,99.90
2018-03-06T08:01:10.576Z,99.90
2018-03-06T08:03:39.256Z,99.90
2018-03-06T08:06:07.597Z,99.90
2018-03-06T08:08:35.957Z,99.90
2018-03-06T08:11:04.381Z,99.90
2018-03-06T08:13:32.761Z,99.90
2018-03-06T08:16:01.124Z,99.90
2018-03-06T08:18:29.723Z,99.90
2018-03-06T08:20:58.143Z,99.90
2018-03-06T08:23:26.598Z,99.90
2018-03-06T08:25:54.976Z,99.70
2018-03-06T08:28:23.337Z,99.40
2018-03-06T08:30:51.761Z,99.10
2018-03-06T08:33:20.124Z,98.70
2018-03-06T08:35:48.551Z,98.30
2018-03-06T08:38:17.753Z,97.60
2018-03-06T08:40:46.103Z,97.60
2018-03-06T08:43:14.492Z,97.50
2018-03-06T08:45:42.855Z,97.40
2018-03-06T08:48:11.238Z,97.20
2018-03-06T08:50:39.604Z,96.90
2018-03-06T08:53:07.962Z,96.70
2018-03-06T08:55:36.345Z,96.60
2018-03-06T08:58:04.695Z,96.30
2018-03-06T09:00:33.089Z,96.40
2018-03-06T09:03:01.420Z,96.30
2018-03-06T09:05:30.671Z,96.30
2018-03-06T09:07:58.998Z,96.30
2018-03-06T09:10:28.169Z,95.90
2018-03-06T09:12:56.506Z,95.90
2018-03-06T09:15:24.848Z,95.60
2018-03-06T09:17:53.209Z,95.40
2018-03-06T09:20:21.566Z,95.20
2018-03-06T09:22:49.937Z,95.40
2018-03-06T09:25:18.307Z,95.40
2018-03-06T09:27:46.746Z,95.50
2018-03-06T09:30:15.193Z,95.30
2018-03-06T09:32:43.868Z,95.50
2018-03-06T09:35:12.258Z,95.40
2018-03-06T09:37:40.612Z,95.30
2018-03-06T09:40:09.009Z,95.10
2018-03-06T09:42:37.446Z,95.10
2018-03-06T09:45:05.808Z,95.30
2018-03-06T09:47:34.249Z,95.40
2018-03-06T09:50:02.627Z,95.40
2018-03-06T09:52:30.964Z,95.30
2018-03-06T09:55:00.076Z,94.20
2018-03-06T09:57:28.461Z,94.20
2018-03-06T09:59:56.963Z,93.70
2018-03-06T10:02:26.308Z,94.60
2018-03-06T10:04:54.636Z,94.50
2018-03-06T10:07:23.027Z,94.70
2018-03-06T10:09:51.401Z,94.80
2018-03-06T10:12:19.736Z,95.00
2018-03-06T10:14:48.857Z,94.90
2018-03-06T10:17:17.202Z,94.80
2018-03-06T10:19:45.553Z,94.50
2018-03-06T10:22:13.909Z,94.70
2018-03-06T10:24:42.272Z,94.80
2018-03-06T10:27:10.618Z,94.40
2018-03-06T10:29:39.784Z,94.10
2018-03-06T10:32:08.180Z,94.10
2018-03-06T10:34:36.788Z,93.50
2018-03-06T10:37:05.151Z,92.60
2018-03-06T10:39:33.515Z,93.20
2018-03-06T10:42:01.936Z,93.60
2018-03-06T10:44:31.048Z,92.70
2018-03-06T10:46:59.405Z,92.60
2018-03-06T10:49:28.534Z,91.80
2018-03-06T10:51:56.882Z,91.80
2018-03-06T10:54:26.065Z,91.30
2018-03-06T10:56:54.468Z,91.30
2018-03-06T10:59:23.594Z,91.90
2018-03-06T11:02:02.776Z,91.90
2018-03-06T11:04:31.916Z,91.80
2018-03-06T11:07:00.263Z,91.60
2018-03-06T11:09:29.390Z,91.40
2018-03-06T11:11:57.793Z,91.40
2018-03-06T11:14:26.181Z,91.10
2018-03-06T11:16:54.848Z,90.60
2018-03-06T11:19:23.247Z,90.20
2018-03-06T11:21:51.602Z,90.70
2018-03-06T11:24:19.976Z,89.70
2018-03-06T11:26:48.316Z,87.60
2018-03-06T11:29:17.455Z,85.80
2018-03-06T11:31:45.930Z,85.80
2018-03-06T11:34:14.280Z,83.90
2018-03-06T11:36:42.659Z,81.10
2018-03-06T11:39:11.813Z,78.80
2018-03-06T11:41:40.165Z,78.90
2018-03-06T11:44:08.520Z,79.40
2018-03-06T11:46:37.638Z,78.60
2018-03-06T11:49:06.008Z,78.50
2018-03-06T11:51:34.417Z,78.00
2018-03-06T11:54:02.769Z,77.50
2018-03-06T11:56:31.112Z,76.00
2018-03-06T11:59:00.261Z,80.20
2018-03-06T12:01:28.602Z,79.30
2018-03-06T12:03:57.738Z,77.50
2018-03-06T12:06:26.093Z,77.50
2018-03-06T12:08:54.460Z,78.40
2018-03-06T12:11:22.818Z,75.80
2018-03-06T12:13:51.175Z,75.00
2018-03-06T12:16:19.602Z,76.10
2018-03-06T12:18:47.905Z,75.60
2018-03-06T12:21:16.288Z,74.50
2018-03-06T12:23:44.781Z,75.20
2018-03-06T12:26:13.285Z,74.80
2018-03-06T12:28:41.622Z,73.40
2018-03-06T12:31:09.984Z,73.80
2018-03-06T12:33:38.384Z,73.60
2018-03-06T12:36:06.730Z,71.00
2018-03-06T12:38:35.095Z,73.20
2018-03-06T12:41:03.448Z,73.50
2018-03-06T12:43:31.828Z,72.60
2018-03-06T12:46:00.168Z,72.70
2018-03-06T12:48:28.520Z,73.70
2018-03-06T12:50:57.664Z,72.50
2018-03-06T12:53:26.021Z,72.50
2018-03-06T12:55:54.380Z,74.10
2018-03-06T12:58:22.879Z,74.00
2018-03-06T13:00:52.004Z,73.30
2018-03-06T13:03:20.388Z,73.10
2018-03-06T13:05:48.780Z,72.90
2018-03-06T13:08:17.128Z,72.90
2018-03-06T13:10:45.462Z,69.70
2018-03-06T13:13:13.841Z,72.20
2018-03-06T13:15:42.968Z,75.20
2018-03-06T13:18:11.336Z,74.30
2018-03-06T13:20:39.701Z,73.80
2018-03-06T13:23:08.061Z,72.90
2018-03-06T13:25:36.428Z,73.10
2018-03-06T13:28:04.826Z,73.10
2018-03-06T13:30:33.267Z,70.90
2018-03-06T13:33:01.629Z,72.10
2018-03-06T13:35:29.988Z,73.30
2018-03-06T13:37:59.120Z,71.30
2018-03-06T13:40:27.514Z,71.10
2018-03-06T13:42:55.892Z,71.20
2018-03-06T13:45:24.265Z,73.30
2018-03-06T13:47:52.709Z,72.80
2018-03-06T13:50:21.065Z,73.10
2018-03-06T13:52:49.422Z,74.40
2018-03-06T13:55:17.793Z,74.10
2018-03-06T13:57:46.140Z,73.60
2018-03-06T14:00:14.501Z,73.20
2018-03-06T14:02:43.708Z,73.90
2018-03-06T14:05:12.131Z,74.10
2018-03-06T14:07:40.475Z,73.70
2018-03-06T14:10:08.869Z,74.40
2018-03-06T14:12:37.266Z,75.20
2018-03-06T14:15:05.700Z,75.80
2018-03-06T14:17:34.930Z,75.10
2018-03-06T14:20:03.339Z,75.00
2018-03-06T14:22:31.732Z,75.40
2018-03-06T14:25:00.081Z,77.10
2018-03-06T14:27:28.432Z,78.20
2018-03-06T14:29:56.808Z,77.20
2018-03-06T14:32:25.521Z,76.30
2018-03-06T14:34:53.892Z,77.30
2018-03-06T14:37:22.321Z,77.80
2018-03-06T14:39:50.656Z,78.10
2018-03-06T14:42:19.074Z,78.10
2018-03-06T14:44:47.539Z,79.20
2018-03-06T14:47:15.968Z,79.60
2018-03-06T14:49:45.076Z,80.20
2018-03-06T14:52:13.637Z,81.00
2018-03-06T14:54:41.995Z,80.90
2018-03-06T14:57:10.353Z,80.70
2018-03-06T14:59:38.708Z,80.70
2018-03-06T15:02:07.123Z,82.40
2018-03-06T15:04:35.464Z,83.00
2018-03-06T15:07:03.818Z,83.30
2018-03-06T15:09:32.242Z,84.20
2018-03-06T15:12:00.614Z,84.30
2018-03-06T15:14:28.964Z,85.50
2018-03-06T15:16:57.329Z,85.10
2018-03-06T15:19:25.740Z,85.70
2018-03-06T15:21:54.083Z,85.60
2018-03-06T15:24:23.225Z,86.60
2018-03-06T15:26:51.555Z,86.60
2018-03-06T15:29:20.671Z,87.90
2018-03-06T15:31:49.017Z,87.90
2018-03-06T15:34:17.384Z,88.40
2018-03-06T15:36:45.756Z,88.70
2018-03-06T15:39:14.119Z,89.80
2018-03-06T15:41:42.772Z,89.80
2018-03-06T15:44:11.136Z,90.10
2018-03-06T15:46:40.291Z,90.40
2018-03-06T15:49:08.663Z,90.40
2018-03-06T15:51:37.047Z,90.40
2018-03-06T15:54:05.413Z,90.50
2018-03-06T15:56:33.762Z,90.70
2018-03-06T15:59:03.058Z,90.90
2018-03-06T16:01:32.170Z,91.30
2018-03-06T16:04:00.569Z,91.30
2018-03-06T16:06:28.929Z,91.40
2018-03-06T16:08:57.414Z,91.60
2018-03-06T16:11:25.831Z,91.70
2018-03-06T16:13:54.996Z,92.10
2018-03-06T16:16:23.545Z,92.10
2018-03-06T16:18:52.660Z,92.50
2018-03-06T16:21:21.024Z,92.40
2018-03-06T16:23:50.268Z,92.90
2018-03-06T16:26:18.630Z,92.80
2018-03-06T16:28:47.007Z,93.10
2018-03-06T16:31:15.358Z,93.40
2018-03-06T16:33:44.515Z,93.80
2018-03-06T16:36:13.034Z,93.80
2018-03-06T16:38:41.408Z,94.00
2018-03-06T16:41:10.531Z,94.40
2018-03-06T16:43:38.883Z,94.40
2018-03-06T16:46:08.026Z,95.20
2018-03-06T16:48:36.399Z,95.10
2018-03-06T16:51:04.768Z,95.20
2018-03-06T16:53:33.113Z,95.40
2018-03-06T16:56:01.520Z,95.70
2018-03-06T16:58:30.024Z,96.00
2018-03-06T17:00:58.439Z,96.30
2018-03-06T17:03:26.811Z,96.40
2018-03-06T17:05:55.171Z,96.60
2018-03-06T17:08:23.549Z,96.80
2018-03-06T17:10:51.901Z,97.10
2018-03-06T17:13:21.048Z,97.20
2018-03-06T17:15:49.541Z,97.20
2018-03-06T17:18:18.805Z,97.30
2018-03-06T17:20:47.171Z,97.40
2018-03-06T17:23:15.553Z,97.50
2018-03-06T17:25:43.948Z,97.50
2018-03-06T17:28:12.294Z,97.50
2018-03-06T17:30:41.036Z,97.50
2018-03-06T17:33:09.601Z,97.50
2018-03-06T17:35:37.964Z,97.60
2018-03-06T17:38:06.368Z,97.70
2018-03-06T17:40:34.725Z,97.70
2018-03-06T17:43:03.117Z,97.90
2018-03-06T17:45:31.596Z,97.90
2018-03-06T17:47:59.978Z,98.00
2018-03-06T17:50:28.344Z,98.00
2018-03-06T17:52:56.715Z,98.00
2018-03-06T17:55:25.064Z,98.00
2018-03-06T17:57:54.507Z,98.00
2018-03-06T18:00:23.777Z,98.10
2018-03-06T18:02:52.895Z,98.10
2018-03-06T18:05:21.240Z,98.00
2018-03-06T18:07:50.362Z,98.10
2018-03-06T18:10:18.740Z,98.10
2018-03-06T18:12:47.840Z,98.30
2018-03-06T18:15:16.276Z,98.10
2018-03-06T18:17:44.669Z,98.20
2018-03-06T18:20:13.062Z,98.30
2018-03-06T18:22:41.525Z,98.40
2018-03-06T18:25:09.992Z,98.40
2018-03-06T18:27:38.348Z,98.50
2018-03-06T18:30:06.718Z,98.50
2018-03-06T18:32:35.438Z,98.50
2018-03-06T18:35:03.793Z,98.60
2018-03-06T18:37:32.191Z,98.70
2018-03-06T18:40:00.635Z,98.70
2018-03-06T18:42:29.180Z,98.80
2018-03-06T18:44:57.563Z,98.80
2018-03-06T18:47:25.879Z,98.90
2018-03-06T18:50:03.848Z,98.90
2018-03-06T18:52:32.202Z,99.00
2018-03-06T18:55:00.667Z,99.00
2018-03-06T18:57:29.027Z,99.10
2018-03-06T19:03:26.956Z,99.20
2018-03-06T19:08:57.258Z,99.30
2018-03-06T19:11:25.627Z,99.40
2018-03-06T19:13:54.052Z,99.40
2018-03-06T19:16:22.455Z,99.40
2018-03-06T19:18:51.205Z,99.40
2018-03-06T19:21:19.532Z,99.50
2018-03-06T19:23:48.677Z,99.50
2018-03-06T19:26:17.055Z,99.50
2018-03-06T19:28:45.429Z,99.60
2018-03-06T19:31:13.786Z,99.50
2018-03-06T19:33:42.300Z,99.60
2018-03-06T19:38:45.478Z,99.70
2018-03-06T19:41:13.998Z,99.80
2018-03-06T19:43:42.390Z,99.80
2018-03-06T19:46:10.758Z,99.90
2018-03-06T19:48:39.998Z,99.90
2018-03-06T19:51:09.153Z,99.90
2018-03-06T19:53:37.574Z,99.90
2018-03-06T19:56:05.940Z,99.90
2018-03-06T19:58:34.305Z,99.90
2018-03-06T20:01:02.778Z,99.90
2018-03-06T20:03:31.225Z,99.90
2018-03-06T20:05:59.587Z,99.90
2018-03-06T20:08:28.747Z,99.90
2018-03-06T20:10:57.279Z,99.90
2018-03-06T20:13:25.627Z,99.90
2018-03-06T20:15:54.905Z,99.90
2018-03-06T20:18:23.417Z,99.90
2018-03-06T20:20:51.818Z,99.90
2018-03-06T20:23:20.456Z,99.90
2018-03-06T20:25:55.168Z,99.90
2018-03-06T20:28:23.574Z,99.90
2018-03-06T20:30:57.656Z,99.90
2018-03-06T20:33:26.120Z,99.90
2018-03-06T20:35:54.560Z,99.90
2018-03-06T20:38:29.457Z,99.90
2018-03-06T20:40:57.832Z,99.90
2018-03-06T20:43:26.357Z,99.90
2018-03-06T20:46:00.361Z,99.90
2018-03-06T20:48:29.524Z,99.90
2018-03-06T20:50:58.300Z,99.90
2018-03-06T20:53:32.264Z,99.90
2018-03-06T20:56:01.372Z,99.90
2018-03-06T20:58:29.925Z,99.90
2018-03-06T21:00:58.300Z,99.90
2018-03-06T21:03:26.767Z,99.90
2018-03-06T21:05:55.129Z,99.90
2018-03-06T21:08:23.510Z,99.90
2018-03-06T21:10:52.871Z,99.90
2018-03-06T21:13:22.013Z,99.90
2018-03-06T21:15:50.494Z,99.90
2018-03-06T21:18:18.841Z,99.90
2018-03-06T21:20:47.207Z,99.90
2018-03-06T21:23:16.344Z,99.90
2018-03-06T21:25:44.690Z,99.90
2018-03-06T21:28:13.112Z,99.90
2018-03-06T21:30:41.466Z,99.90
2018-03-06T21:33:09.902Z,99.90
2018-03-06T21:35:39.140Z,99.90
2018-03-06T21:38:08.243Z,99.90
2018-03-06T21:40:36.680Z,99.90
2018-03-06T21:43:04.993Z,99.90
2018-03-06T21:45:33.360Z,99.90
2018-03-06T21:48:02.485Z,99.90
2018-03-06T21:50:30.851Z,99.90
2018-03-06T21:52:59.213Z,99.90
2018-03-06T21:55:28.327Z,99.90
2018-03-06T21:57:56.676Z,99.90
2018-03-06T22:00:25.849Z,99.90
2018-03-06T22:02:54.224Z,99.90
2018-03-06T22:05:22.568Z,99.90
2018-03-06T22:07:50.961Z,99.90
2018-03-06T22:10:19.340Z,99.90
2018-03-06T22:12:47.661Z,99.90
2018-03-06T22:15:16.057Z,99.90
2018-03-06T22:17:44.390Z,99.90
2018-03-06T22:20:12.748Z,99.90
2018-03-06T22:22:44.794Z,99.90
2018-03-06T22:25:13.168Z,99.90
2018-03-06T22:27:41.567Z,99.90
2018-03-06T22:30:10.008Z,99.90
2018-03-06T22:32:38.441Z,99.90
2018-03-06T22:35:06.812Z,99.90
2018-03-06T22:37:35.167Z,99.90
2018-03-06T22:40:04.362Z,99.90
2018-03-06T22:42:33.492Z,99.90
2018-03-06T22:45:01.849Z,99.90
2018-03-06T22:47:30.217Z,99.90
2018-03-06T22:49:59.327Z,99.90
2018-03-06T22:52:27.674Z,99.90
2018-03-06T22:54:56.813Z,99.90
2018-03-06T22:57:25.210Z,99.90
2018-03-06T22:59:54.299Z,99.90
2018-03-06T23:02:22.682Z,99.90
2018-03-06T23:04:51.019Z,99.90
2018-03-06T23:07:20.148Z,99.90
2018-03-06T23:09:48.477Z,99.90
2018-03-06T23:12:16.944Z,99.90
2018-03-06T23:14:45.317Z,99.90
2018-03-06T23:17:13.738Z,99.90
2018-03-06T23:19:42.115Z,99.90
2018-03-06T23:22:10.495Z,99.90
2018-03-06T23:24:38.887Z,99.90
2018-03-06T23:27:07.255Z,99.90
2018-03-06T23:29:35.621Z,99.90
2018-03-06T23:32:04.769Z,99.90
2018-03-06T23:34:33.145Z,99.90
2018-03-06T23:37:01.522Z,99.90
2018-03-06T23:39:29.967Z,99.90
2018-03-06T23:41:58.336Z,99.90
2018-03-06T23:44:26.730Z,99.90
2018-03-06T23:46:55.093Z,99.90
2018-03-06T23:49:23.452Z,99.90
2018-03-06T23:51:52.155Z,99.90
2018-03-06T23:54:20.526Z,99.90
2018-03-06T23:56:48.917Z,99.90
2018-03-06T23:59:17.289Z,99.90
